Hebertville, Canada
Current Conditions -  °F | °C
As of 4:00 PM on Thursday 18 Dec 2014 (Local Time) from CYRJ Reporting Station
Light Snow Light Snow  
Wind Chill: 13°   Ceiling: 1500
Heat Index: 25°   Visibility: 25mi
Dew Point: 21°   Wind: 13mph
Humidity: 86%   Direction: 330°NNW
Pressure: 29.86"   Gusts: 20mph
Location:  48.4°N, 71.68°W
Report Text: CYRJ 182100Z 33011G17KT 25SM -SN BKN015 OVC025 M04/M06 A2986 RMK SC6SC2 SLP122
Loading
Personal Weather Stations






























Interactive Weather Map New forecast layout! Learn more

10-Day Weather Forecast

Advertisements
Track Severe Weather on mobile